Seneca Cors, Wisconsin
Current Conditions -  °F | °C
As of 3:54 AM on Monday 26 Jan 2015 (Local Time) from KISW Reporting Station
Overcast Overcast  
Wind Chill:   Ceiling: 9000
Heat Index: 14°   Visibility: 10mi
Dew Point:   Wind: 5mph
Humidity: 74%   Direction: 190°S
Pressure: 29.96"   Gusts: NA
Location:  44.4583°N, 90.0009°W
Report Text: KISW 260954Z AUTO 19004KT 10SM SCT075 OVC090 M10/M14 A2996 RMK AO2 SLP164 T11001139
Loading
Personal Weather Stations






























Interactive Weather Map New forecast layout! Learn more

10-Day Weather Forecast

Advertisements
Track Severe Weather on mobile